sensor_id;sensor_type;location;lat;lon;timestamp;P1;durP1;ratioP1;P2;durP2;ratioP2
3916;SDS011;1973;50.518;7.318;2023-10-09T00:01:07;11.43;;;6.87;;
3916;SDS011;1973;50.518;7.318;2023-10-09T00:03:41;11.27;;;6.57;;
3916;SDS011;1973;50.518;7.318;2023-10-09T00:06:09;10.90;;;6.60;;
3916;SDS011;1973;50.518;7.318;2023-10-09T00:08:41;15.30;;;7.10;;
3916;SDS011;1973;50.518;7.318;2023-10-09T00:11:11;10.30;;;6.33;;
3916;SDS011;1973;50.518;7.318;2023-10-09T00:13:43;10.63;;;6.10;;
3916;SDS011;1973;50.518;7.318;2023-10-09T00:16:18;9.87;;;6.40;;
3916;SDS011;1973;50.518;7.318;2023-10-09T00:19:03;8.83;;;6.70;;
3916;SDS011;1973;50.518;7.318;2023-10-09T00:21:47;9.70;;;6.23;;
3916;SDS011;1973;50.518;7.318;2023-10-09T00:24:14;11.93;;;7.03;;
3916;SDS011;1973;50.518;7.318;2023-10-09T00:26:51;10.23;;;6.27;;
3916;SDS011;1973;50.518;7.318;2023-10-09T00:29:18;11.00;;;6.17;;
3916;SDS011;1973;50.518;7.318;2023-10-09T00:31:51;10.67;;;6.97;;
3916;SDS011;1973;50.518;7.318;2023-10-09T00:34:29;11.10;;;6.70;;
3916;SDS011;1973;50.518;7.318;2023-10-09T00:36:57;14.40;;;7.20;;
3916;SDS011;1973;50.518;7.318;2023-10-09T00:39:30;10.07;;;6.27;;
3916;SDS011;1973;50.518;7.318;2023-10-09T00:42:19;9.87;;;6.00;;
3916;SDS011;1973;50.518;7.318;2023-10-09T00:44:55;13.27;;;6.20;;
3916;SDS011;1973;50.518;7.318;2023-10-09T00:47:22;9.43;;;6.30;;
3916;SDS011;1973;50.518;7.318;2023-10-09T00:50:03;11.30;;;6.80;;
3916;SDS011;1973;50.518;7.318;2023-10-09T00:52:53;10.90;;;7.20;;
3916;SDS011;1973;50.518;7.318;2023-10-09T00:55:31;10.07;;;6.90;;
3916;SDS011;1973;50.518;7.318;2023-10-09T00:58:22;8.97;;;6.27;;
3916;SDS011;1973;50.518;7.318;2023-10-09T01:00:57;10.83;;;7.00;;
3916;SDS011;1973;50.518;7.318;2023-10-09T01:03:25;8.50;;;6.97;;
3916;SDS011;1973;50.518;7.318;2023-10-09T01:05:54;10.40;;;7.50;;
3916;SDS011;1973;50.518;7.318;2023-10-09T01:08:26;9.93;;;6.87;;
3916;SDS011;1973;50.518;7.318;2023-10-09T01:11:04;12.37;;;6.83;;
3916;SDS011;1973;50.518;7.318;2023-10-09T01:13:45;15.50;;;7.40;;
3916;SDS011;1973;50.518;7.318;2023-10-09T01:16:21;9.90;;;6.70;;
3916;SDS011;1973;50.518;7.318;2023-10-09T01:18:51;9.20;;;6.97;;
3916;SDS011;1973;50.518;7.318;2023-10-09T01:21:19;13.23;;;7.17;;
3916;SDS011;1973;50.518;7.318;2023-10-09T01:23:51;8.70;;;5.73;;
3916;SDS011;1973;50.518;7.318;2023-10-09T01:26:40;9.67;;;6.67;;
3916;SDS011;1973;50.518;7.318;2023-10-09T01:31:46;11.83;;;6.20;;
3916;SDS011;1973;50.518;7.318;2023-10-09T01:37:16;10.40;;;6.60;;
3916;SDS011;1973;50.518;7.318;2023-10-09T01:39:55;11.60;;;6.90;;
3916;SDS011;1973;50.518;7.318;2023-10-09T01:42:25;7.93;;;6.20;;
3916;SDS011;1973;50.518;7.318;2023-10-09T01:45:01;7.80;;;6.10;;
3916;SDS011;1973;50.518;7.318;2023-10-09T01:47:37;11.67;;;5.83;;
3916;SDS011;1973;50.518;7.318;2023-10-09T01:50:04;10.40;;;6.53;;
3916;SDS011;1973;50.518;7.318;2023-10-09T01:52:44;12.00;;;6.13;;
3916;SDS011;1973;50.518;7.318;2023-10-09T01:55:14;10.70;;;6.70;;
3916;SDS011;1973;50.518;7.318;2023-10-09T01:58:00;13.50;;;6.97;;
3916;SDS011;1973;50.518;7.318;2023-10-09T02:00:43;12.43;;;6.63;;
3916;SDS011;1973;50.518;7.318;2023-10-09T02:03:15;8.03;;;6.17;;
3916;SDS011;1973;50.518;7.318;2023-10-09T02:05:42;8.70;;;5.97;;
3916;SDS011;1973;50.518;7.318;2023-10-09T02:08:09;9.30;;;5.87;;
3916;SDS011;1973;50.518;7.318;2023-10-09T02:10:37;11.03;;;6.90;;
3916;SDS011;1973;50.518;7.318;2023-10-09T02:13:07;8.60;;;6.30;;
3916;SDS011;1973;50.518;7.318;2023-10-09T02:15:37;13.00;;;7.00;;
3916;SDS011;1973;50.518;7.318;2023-10-09T02:18:20;12.50;;;6.57;;
3916;SDS011;1973;50.518;7.318;2023-10-09T02:20:48;10.40;;;7.20;;
3916;SDS011;1973;50.518;7.318;2023-10-09T02:23:27;10.20;;;6.40;;
3916;SDS011;1973;50.518;7.318;2023-10-09T02:26:27;9.90;;;6.37;;
3916;SDS011;1973;50.518;7.318;2023-10-09T02:29:05;11.23;;;6.90;;
3916;SDS011;1973;50.518;7.318;2023-10-09T02:31:35;10.23;;;6.67;;
3916;SDS011;1973;50.518;7.318;2023-10-09T02:34:03;10.30;;;7.23;;
3916;SDS011;1973;50.518;7.318;2023-10-09T02:36:31;8.40;;;6.60;;
3916;SDS011;1973;50.518;7.318;2023-10-09T02:39:01;9.50;;;6.17;;
3916;SDS011;1973;50.518;7.318;2023-10-09T02:41:31;11.70;;;7.00;;
3916;SDS011;1973;50.518;7.318;2023-10-09T02:44:00;8.93;;;6.80;;
3916;SDS011;1973;50.518;7.318;2023-10-09T02:46:37;10.70;;;6.67;;
3916;SDS011;1973;50.518;7.318;2023-10-09T02:49:06;9.43;;;5.90;;
3916;SDS011;1973;50.518;7.318;2023-10-09T02:51:36;10.60;;;7.13;;
3916;SDS011;1973;50.518;7.318;2023-10-09T02:54:19;9.60;;;6.30;;
3916;SDS011;1973;50.518;7.318;2023-10-09T02:57:01;8.60;;;6.10;;
3916;SDS011;1973;50.518;7.318;2023-10-09T02:59:34;12.40;;;6.87;;
3916;SDS011;1973;50.518;7.318;2023-10-09T03:02:05;10.57;;;6.90;;
3916;SDS011;1973;50.518;7.318;2023-10-09T03:04:31;9.40;;;6.20;;
3916;SDS011;1973;50.518;7.318;2023-10-09T03:06:58;10.60;;;6.40;;
3916;SDS011;1973;50.518;7.318;2023-10-09T03:09:25;9.43;;;6.50;;
3916;SDS011;1973;50.518;7.318;2023-10-09T03:11:58;12.27;;;6.90;;
3916;SDS011;1973;50.518;7.318;2023-10-09T03:14:30;9.30;;;5.90;;
3916;SDS011;1973;50.518;7.318;2023-10-09T03:16:58;13.37;;;7.53;;
3916;SDS011;1973;50.518;7.318;2023-10-09T03:19:25;9.23;;;6.17;;
3916;SDS011;1973;50.518;7.318;2023-10-09T03:21:52;9.67;;;6.50;;
3916;SDS011;1973;50.518;7.318;2023-10-09T03:24:19;8.60;;;6.23;;
3916;SDS011;1973;50.518;7.318;2023-10-09T03:26:48;12.13;;;7.20;;
3916;SDS011;1973;50.518;7.318;2023-10-09T03:29:18;11.03;;;6.10;;
3916;SDS011;1973;50.518;7.318;2023-10-09T03:31:45;11.10;;;6.73;;
3916;SDS011;1973;50.518;7.318;2023-10-09T03:34:12;10.47;;;6.40;;
3916;SDS011;1973;50.518;7.318;2023-10-09T03:36:40;11.33;;;6.20;;
3916;SDS011;1973;50.518;7.318;2023-10-09T03:39:08;14.27;;;6.83;;
3916;SDS011;1973;50.518;7.318;2023-10-09T03:41:51;7.53;;;6.10;;
3916;SDS011;1973;50.518;7.318;2023-10-09T03:44:20;9.27;;;6.33;;
3916;SDS011;1973;50.518;7.318;2023-10-09T03:46:48;8.50;;;6.20;;
3916;SDS011;1973;50.518;7.318;2023-10-09T03:49:17;9.87;;;6.57;;
3916;SDS011;1973;50.518;7.318;2023-10-09T03:51:49;11.07;;;6.40;;
3916;SDS011;1973;50.518;7.318;2023-10-09T03:54:17;12.63;;;6.87;;
3916;SDS011;1973;50.518;7.318;2023-10-09T03:56:47;11.27;;;6.23;;
3916;SDS011;1973;50.518;7.318;2023-10-09T03:59:19;10.83;;;6.20;;
3916;SDS011;1973;50.518;7.318;2023-10-09T04:01:47;11.50;;;6.23;;
3916;SDS011;1973;50.518;7.318;2023-10-09T04:04:19;13.00;;;5.97;;
3916;SDS011;1973;50.518;7.318;2023-10-09T04:06:49;12.57;;;6.40;;
3916;SDS011;1973;50.518;7.318;2023-10-09T04:09:19;10.03;;;6.40;;
3916;SDS011;1973;50.518;7.318;2023-10-09T04:11:49;9.17;;;5.53;;
3916;SDS011;1973;50.518;7.318;2023-10-09T04:14:40;8.00;;;5.57;;
3916;SDS011;1973;50.518;7.318;2023-10-09T04:17:21;7.23;;;5.30;;
3916;SDS011;1973;50.518;7.318;2023-10-09T04:19:50;12.50;;;6.27;;
3916;SDS011;1973;50.518;7.318;2023-10-09T04:22:36;10.30;;;5.47;;
3916;SDS011;1973;50.518;7.318;2023-10-09T04:25:12;9.90;;;5.43;;
3916;SDS011;1973;50.518;7.318;2023-10-09T04:27:54;7.67;;;5.80;;
3916;SDS011;1973;50.518;7.318;2023-10-09T04:30:41;9.20;;;5.87;;
3916;SDS011;1973;50.518;7.318;2023-10-09T04:33:13;9.27;;;6.37;;
3916;SDS011;1973;50.518;7.318;2023-10-09T04:36:04;10.17;;;7.07;;
3916;SDS011;1973;50.518;7.318;2023-10-09T04:38:48;8.63;;;6.20;;
3916;SDS011;1973;50.518;7.318;2023-10-09T04:41:31;10.10;;;7.33;;
3916;SDS011;1973;50.518;7.318;2023-10-09T04:44:21;10.13;;;6.23;;
3916;SDS011;1973;50.518;7.318;2023-10-09T04:46:55;10.80;;;6.20;;
3916;SDS011;1973;50.518;7.318;2023-10-09T04:49:40;10.47;;;6.30;;
3916;SDS011;1973;50.518;7.318;2023-10-09T04:52:22;10.60;;;5.80;;
3916;SDS011;1973;50.518;7.318;2023-10-09T04:54:55;10.20;;;7.30;;
3916;SDS011;1973;50.518;7.318;2023-10-09T04:57:31;10.33;;;7.00;;
3916;SDS011;1973;50.518;7.318;2023-10-09T05:00:05;11.80;;;8.17;;
3916;SDS011;1973;50.518;7.318;2023-10-09T05:02:52;8.73;;;6.47;;
3916;SDS011;1973;50.518;7.318;2023-10-09T05:05:39;10.03;;;7.23;;
3916;SDS011;1973;50.518;7.318;2023-10-09T05:08:11;8.87;;;7.10;;
3916;SDS011;1973;50.518;7.318;2023-10-09T05:10:46;10.73;;;6.10;;
3916;SDS011;1973;50.518;7.318;2023-10-09T05:13:27;10.60;;;6.47;;
3916;SDS011;1973;50.518;7.318;2023-10-09T05:18:54;10.90;;;6.10;;
3916;SDS011;1973;50.518;7.318;2023-10-09T05:21:24;11.87;;;6.67;;
3916;SDS011;1973;50.518;7.318;2023-10-09T05:23:59;11.83;;;7.20;;
3916;SDS011;1973;50.518;7.318;2023-10-09T05:32:02;9.70;;;7.10;;
3916;SDS011;1973;50.518;7.318;2023-10-09T05:34:33;9.20;;;6.23;;
3916;SDS011;1973;50.518;7.318;2023-10-09T05:37:02;11.07;;;6.83;;
3916;SDS011;1973;50.518;7.318;2023-10-09T05:39:44;10.27;;;6.30;;
3916;SDS011;1973;50.518;7.318;2023-10-09T05:42:24;7.77;;;5.90;;
3916;SDS011;1973;50.518;7.318;2023-10-09T05:45:10;8.37;;;6.10;;
3916;SDS011;1973;50.518;7.318;2023-10-09T05:47:55;8.47;;;6.20;;
3916;SDS011;1973;50.518;7.318;2023-10-09T05:50:31;9.37;;;6.40;;
3916;SDS011;1973;50.518;7.318;2023-10-09T05:53:01;13.30;;;6.70;;
3916;SDS011;1973;50.518;7.318;2023-10-09T05:55:29;10.37;;;6.50;;
3916;SDS011;1973;50.518;7.318;2023-10-09T05:58:34;10.60;;;6.60;;
3916;SDS011;1973;50.518;7.318;2023-10-09T06:01:19;11.60;;;6.37;;
3916;SDS011;1973;50.518;7.318;2023-10-09T06:04:04;9.50;;;6.23;;
3916;SDS011;1973;50.518;7.318;2023-10-09T06:06:42;9.70;;;6.43;;
3916;SDS011;1973;50.518;7.318;2023-10-09T06:09:12;9.90;;;6.80;;
3916;SDS011;1973;50.518;7.318;2023-10-09T06:11:41;10.40;;;6.33;;
3916;SDS011;1973;50.518;7.318;2023-10-09T06:14:16;9.23;;;6.47;;
3916;SDS011;1973;50.518;7.318;2023-10-09T06:16:55;11.90;;;6.60;;
3916;SDS011;1973;50.518;7.318;2023-10-09T06:19:23;13.20;;;7.27;;
3916;SDS011;1973;50.518;7.318;2023-10-09T06:22:07;9.70;;;5.70;;
3916;SDS011;1973;50.518;7.318;2023-10-09T06:24:56;10.03;;;5.93;;
3916;SDS011;1973;50.518;7.318;2023-10-09T06:27:24;8.77;;;6.07;;
3916;SDS011;1973;50.518;7.318;2023-10-09T06:29:52;10.87;;;6.73;;
3916;SDS011;1973;50.518;7.318;2023-10-09T06:32:40;8.40;;;6.30;;
3916;SDS011;1973;50.518;7.318;2023-10-09T06:35:26;12.10;;;6.83;;
3916;SDS011;1973;50.518;7.318;2023-10-09T06:37:59;10.90;;;6.43;;
3916;SDS011;1973;50.518;7.318;2023-10-09T06:40:38;10.80;;;7.07;;
3916;SDS011;1973;50.518;7.318;2023-10-09T06:43:23;11.40;;;6.90;;
3916;SDS011;1973;50.518;7.318;2023-10-09T06:45:50;9.27;;;6.70;;
3916;SDS011;1973;50.518;7.318;2023-10-09T06:48:21;15.13;;;7.50;;
3916;SDS011;1973;50.518;7.318;2023-10-09T06:51:05;10.93;;;7.03;;
3916;SDS011;1973;50.518;7.318;2023-10-09T06:53:39;8.20;;;6.60;;
3916;SDS011;1973;50.518;7.318;2023-10-09T06:56:22;10.60;;;7.20;;
3916;SDS011;1973;50.518;7.318;2023-10-09T06:59:02;10.80;;;7.30;;
3916;SDS011;1973;50.518;7.318;2023-10-09T07:01:52;11.63;;;6.73;;
3916;SDS011;1973;50.518;7.318;2023-10-09T07:04:34;11.50;;;7.20;;
3916;SDS011;1973;50.518;7.318;2023-10-09T07:07:02;10.00;;;5.43;;
3916;SDS011;1973;50.518;7.318;2023-10-09T07:09:33;9.60;;;5.57;;
3916;SDS011;1973;50.518;7.318;2023-10-09T07:12:09;10.83;;;7.33;;
3916;SDS011;1973;50.518;7.318;2023-10-09T07:14:41;10.63;;;6.77;;
3916;SDS011;1973;50.518;7.318;2023-10-09T07:17:07;8.20;;;5.87;;
3916;SDS011;1973;50.518;7.318;2023-10-09T07:19:54;10.70;;;6.20;;
3916;SDS011;1973;50.518;7.318;2023-10-09T07:22:23;9.30;;;6.17;;
3916;SDS011;1973;50.518;7.318;2023-10-09T07:24:56;9.20;;;6.13;;
3916;SDS011;1973;50.518;7.318;2023-10-09T07:27:23;9.00;;;5.97;;
3916;SDS011;1973;50.518;7.318;2023-10-09T07:30:13;11.73;;;6.50;;
3916;SDS011;1973;50.518;7.318;2023-10-09T07:33:06;9.43;;;6.03;;
3916;SDS011;1973;50.518;7.318;2023-10-09T07:35:38;7.97;;;5.73;;
3916;SDS011;1973;50.518;7.318;2023-10-09T07:40:46;11.97;;;5.30;;
3916;SDS011;1973;50.518;7.318;2023-10-09T07:43:42;8.17;;;5.50;;
3916;SDS011;1973;50.518;7.318;2023-10-09T07:46:10;8.03;;;5.90;;
3916;SDS011;1973;50.518;7.318;2023-10-09T07:49:01;7.40;;;5.97;;
3916;SDS011;1973;50.518;7.318;2023-10-09T07:51:36;8.07;;;6.40;;
3916;SDS011;1973;50.518;7.318;2023-10-09T07:54:04;11.53;;;6.43;;
3916;SDS011;1973;50.518;7.318;2023-10-09T07:59:08;14.40;;;9.00;;
3916;SDS011;1973;50.518;7.318;2023-10-09T08:01:40;12.80;;;7.40;;
3916;SDS011;1973;50.518;7.318;2023-10-09T08:04:19;9.50;;;8.27;;
3916;SDS011;1973;50.518;7.318;2023-10-09T08:07:04;13.60;;;7.67;;
3916;SDS011;1973;50.518;7.318;2023-10-09T08:09:54;12.53;;;8.30;;
3916;SDS011;1973;50.518;7.318;2023-10-09T08:12:40;10.00;;;7.10;;
3916;SDS011;1973;50.518;7.318;2023-10-09T08:15:11;9.50;;;7.33;;
3916;SDS011;1973;50.518;7.318;2023-10-09T08:17:40;11.50;;;7.63;;
3916;SDS011;1973;50.518;7.318;2023-10-09T08:20:14;13.43;;;7.60;;
3916;SDS011;1973;50.518;7.318;2023-10-09T08:22:44;12.03;;;8.10;;
3916;SDS011;1973;50.518;7.318;2023-10-09T08:25:16;12.57;;;8.33;;
3916;SDS011;1973;50.518;7.318;2023-10-09T08:28:01;14.17;;;8.73;;
3916;SDS011;1973;50.518;7.318;2023-10-09T08:30:41;15.00;;;8.80;;
3916;SDS011;1973;50.518;7.318;2023-10-09T08:33:16;8.43;;;6.70;;
3916;SDS011;1973;50.518;7.318;2023-10-09T08:35:56;10.13;;;7.30;;
3916;SDS011;1973;50.518;7.318;2023-10-09T08:38:32;10.60;;;7.10;;
3916;SDS011;1973;50.518;7.318;2023-10-09T08:41:11;13.13;;;6.70;;
3916;SDS011;1973;50.518;7.318;2023-10-09T08:43:54;15.10;;;6.80;;
3916;SDS011;1973;50.518;7.318;2023-10-09T08:46:25;10.80;;;6.77;;
3916;SDS011;1973;50.518;7.318;2023-10-09T08:48:58;9.93;;;7.13;;
3916;SDS011;1973;50.518;7.318;2023-10-09T08:51:26;12.97;;;6.97;;
3916;SDS011;1973;50.518;7.318;2023-10-09T08:53:53;11.30;;;7.37;;
3916;SDS011;1973;50.518;7.318;2023-10-09T08:56:21;10.30;;;7.47;;
3916;SDS011;1973;50.518;7.318;2023-10-09T08:58:58;11.53;;;7.40;;
3916;SDS011;1973;50.518;7.318;2023-10-09T09:01:31;13.93;;;8.07;;
3916;SDS011;1973;50.518;7.318;2023-10-09T09:03:59;9.90;;;7.17;;
3916;SDS011;1973;50.518;7.318;2023-10-09T09:06:26;8.57;;;6.20;;
3916;SDS011;1973;50.518;7.318;2023-10-09T09:09:11;11.50;;;7.13;;
3916;SDS011;1973;50.518;7.318;2023-10-09T09:11:42;11.03;;;7.07;;
3916;SDS011;1973;50.518;7.318;2023-10-09T09:14:15;9.80;;;7.50;;
3916;SDS011;1973;50.518;7.318;2023-10-09T09:16:48;10.17;;;7.10;;
3916;SDS011;1973;50.518;7.318;2023-10-09T09:19:15;12.90;;;7.37;;
3916;SDS011;1973;50.518;7.318;2023-10-09T09:21:49;14.77;;;8.20;;
3916;SDS011;1973;50.518;7.318;2023-10-09T09:24:21;10.63;;;7.60;;
3916;SDS011;1973;50.518;7.318;2023-10-09T09:26:48;14.27;;;7.67;;
3916;SDS011;1973;50.518;7.318;2023-10-09T09:32:03;11.93;;;7.30;;
3916;SDS011;1973;50.518;7.318;2023-10-09T09:34:44;12.70;;;6.90;;
3916;SDS011;1973;50.518;7.318;2023-10-09T09:37:22;16.37;;;8.33;;
3916;SDS011;1973;50.518;7.318;2023-10-09T09:40:17;12.50;;;7.20;;
3916;SDS011;1973;50.518;7.318;2023-10-09T09:43:01;13.50;;;6.60;;
3916;SDS011;1973;50.518;7.318;2023-10-09T09:45:35;9.60;;;5.93;;
3916;SDS011;1973;50.518;7.318;2023-10-09T09:48:03;16.03;;;6.03;;
3916;SDS011;1973;50.518;7.318;2023-10-09T09:50:36;9.67;;;6.40;;
3916;SDS011;1973;50.518;7.318;2023-10-09T09:53:13;9.43;;;7.60;;
3916;SDS011;1973;50.518;7.318;2023-10-09T09:55:49;14.23;;;8.87;;
3916;SDS011;1973;50.518;7.318;2023-10-09T09:58:24;13.43;;;7.10;;
3916;SDS011;1973;50.518;7.318;2023-10-09T10:00:56;14.50;;;7.23;;
3916;SDS011;1973;50.518;7.318;2023-10-09T10:03:31;12.33;;;7.47;;
3916;SDS011;1973;50.518;7.318;2023-10-09T10:06:00;15.97;;;7.03;;
3916;SDS011;1973;50.518;7.318;2023-10-09T10:08:36;11.43;;;7.73;;
3916;SDS011;1973;50.518;7.318;2023-10-09T10:11:05;11.33;;;7.47;;
3916;SDS011;1973;50.518;7.318;2023-10-09T10:16:09;10.90;;;6.63;;
3916;SDS011;1973;50.518;7.318;2023-10-09T10:19:04;13.97;;;9.33;;
3916;SDS011;1973;50.518;7.318;2023-10-09T10:21:48;11.77;;;7.23;;
3916;SDS011;1973;50.518;7.318;2023-10-09T10:35:20;12.60;;;7.10;;
3916;SDS011;1973;50.518;7.318;2023-10-09T10:37:59;14.27;;;6.83;;
3916;SDS011;1973;50.518;7.318;2023-10-09T10:40:37;12.80;;;7.30;;
3916;SDS011;1973;50.518;7.318;2023-10-09T10:43:05;12.03;;;6.93;;
3916;SDS011;1973;50.518;7.318;2023-10-09T10:46:05;14.77;;;6.60;;
3916;SDS011;1973;50.518;7.318;2023-10-09T10:48:41;15.23;;;6.80;;
3916;SDS011;1973;50.518;7.318;2023-10-09T10:51:13;8.20;;;6.20;;
3916;SDS011;1973;50.518;7.318;2023-10-09T10:53:53;9.33;;;5.97;;
3916;SDS011;1973;50.518;7.318;2023-10-09T10:56:26;10.70;;;7.10;;
3916;SDS011;1973;50.518;7.318;2023-10-09T10:59:02;10.37;;;6.00;;
3916;SDS011;1973;50.518;7.318;2023-10-09T11:01:31;10.43;;;6.60;;
3916;SDS011;1973;50.518;7.318;2023-10-09T11:04:17;16.20;;;6.73;;
3916;SDS011;1973;50.518;7.318;2023-10-09T11:07:14;10.93;;;6.40;;
3916;SDS011;1973;50.518;7.318;2023-10-09T11:09:51;12.03;;;6.87;;
3916;SDS011;1973;50.518;7.318;2023-10-09T11:17:32;12.23;;;6.87;;
3916;SDS011;1973;50.518;7.318;2023-10-09T11:20:02;10.00;;;6.17;;
3916;SDS011;1973;50.518;7.318;2023-10-09T11:22:49;9.17;;;6.73;;
3916;SDS011;1973;50.518;7.318;2023-10-09T11:25:37;11.43;;;5.40;;
3916;SDS011;1973;50.518;7.318;2023-10-09T11:28:17;10.43;;;6.23;;
3916;SDS011;1973;50.518;7.318;2023-10-09T11:31:09;12.13;;;7.23;;
3916;SDS011;1973;50.518;7.318;2023-10-09T11:33:49;11.37;;;5.53;;
3916;SDS011;1973;50.518;7.318;2023-10-09T11:36:20;13.03;;;6.27;;
3916;SDS011;1973;50.518;7.318;2023-10-09T11:38:58;13.40;;;5.40;;
3916;SDS011;1973;50.518;7.318;2023-10-09T11:41:45;7.63;;;5.20;;
3916;SDS011;1973;50.518;7.318;2023-10-09T11:44:16;11.50;;;5.60;;
3916;SDS011;1973;50.518;7.318;2023-10-09T11:47:02;12.30;;;5.50;;
3916;SDS011;1973;50.518;7.318;2023-10-09T11:49:49;12.27;;;5.60;;
3916;SDS011;1973;50.518;7.318;2023-10-09T11:53:13;10.90;;;5.70;;
3916;SDS011;1973;50.518;7.318;2023-10-09T11:55:44;13.70;;;6.33;;
3916;SDS011;1973;50.518;7.318;2023-10-09T11:58:19;8.13;;;5.60;;
3916;SDS011;1973;50.518;7.318;2023-10-09T12:00:52;9.30;;;5.53;;
3916;SDS011;1973;50.518;7.318;2023-10-09T12:03:26;10.63;;;5.33;;
3916;SDS011;1973;50.518;7.318;2023-10-09T12:05:57;11.20;;;5.33;;
3916;SDS011;1973;50.518;7.318;2023-10-09T12:08:24;8.03;;;5.10;;
3916;SDS011;1973;50.518;7.318;2023-10-09T12:10:53;7.90;;;6.03;;
3916;SDS011;1973;50.518;7.318;2023-10-09T12:13:24;9.73;;;5.80;;
3916;SDS011;1973;50.518;7.318;2023-10-09T12:15:52;9.27;;;5.77;;
3916;SDS011;1973;50.518;7.318;2023-10-09T12:18:20;12.17;;;5.50;;
3916;SDS011;1973;50.518;7.318;2023-10-09T12:20:48;10.50;;;5.60;;
3916;SDS011;1973;50.518;7.318;2023-10-09T12:23:18;10.80;;;5.90;;
3916;SDS011;1973;50.518;7.318;2023-10-09T12:25:48;8.57;;;4.90;;
3916;SDS011;1973;50.518;7.318;2023-10-09T12:28:16;8.63;;;4.97;;
3916;SDS011;1973;50.518;7.318;2023-10-09T12:30:47;11.00;;;6.17;;
3916;SDS011;1973;50.518;7.318;2023-10-09T12:33:17;8.20;;;5.00;;
3916;SDS011;1973;50.518;7.318;2023-10-09T12:35:46;8.53;;;5.07;;
3916;SDS011;1973;50.518;7.318;2023-10-09T12:38:13;10.67;;;5.30;;
3916;SDS011;1973;50.518;7.318;2023-10-09T12:40:45;9.27;;;6.07;;
3916;SDS011;1973;50.518;7.318;2023-10-09T12:43:18;7.23;;;5.00;;
3916;SDS011;1973;50.518;7.318;2023-10-09T12:45:46;11.90;;;5.10;;
3916;SDS011;1973;50.518;7.318;2023-10-09T12:48:12;8.57;;;4.53;;
3916;SDS011;1973;50.518;7.318;2023-10-09T12:50:41;8.23;;;4.30;;
3916;SDS011;1973;50.518;7.318;2023-10-09T12:53:08;14.27;;;5.77;;
3916;SDS011;1973;50.518;7.318;2023-10-09T12:55:38;9.00;;;5.20;;
3916;SDS011;1973;50.518;7.318;2023-10-09T12:58:08;9.43;;;4.40;;
3916;SDS011;1973;50.518;7.318;2023-10-09T13:00:41;8.97;;;4.93;;
3916;SDS011;1973;50.518;7.318;2023-10-09T13:03:15;12.70;;;5.83;;
3916;SDS011;1973;50.518;7.318;2023-10-09T13:05:47;7.73;;;5.37;;
3916;SDS011;1973;50.518;7.318;2023-10-09T13:08:27;9.97;;;5.20;;
3916;SDS011;1973;50.518;7.318;2023-10-09T13:11:01;9.30;;;5.17;;
3916;SDS011;1973;50.518;7.318;2023-10-09T13:13:43;8.37;;;5.00;;
3916;SDS011;1973;50.518;7.318;2023-10-09T13:16:14;7.93;;;4.63;;
3916;SDS011;1973;50.518;7.318;2023-10-09T13:18:52;8.23;;;4.90;;
3916;SDS011;1973;50.518;7.318;2023-10-09T13:21:23;7.10;;;5.17;;
3916;SDS011;1973;50.518;7.318;2023-10-09T13:23:58;6.20;;;5.10;;
3916;SDS011;1973;50.518;7.318;2023-10-09T13:26:26;9.23;;;4.93;;
3916;SDS011;1973;50.518;7.318;2023-10-09T13:28:59;6.60;;;4.60;;
3916;SDS011;1973;50.518;7.318;2023-10-09T13:31:28;11.67;;;5.80;;
3916;SDS011;1973;50.518;7.318;2023-10-09T13:33:58;8.20;;;5.20;;
3916;SDS011;1973;50.518;7.318;2023-10-09T13:36:25;9.33;;;5.43;;
3916;SDS011;1973;50.518;7.318;2023-10-09T13:39:01;8.90;;;5.37;;
3916;SDS011;1973;50.518;7.318;2023-10-09T13:41:49;11.93;;;4.87;;
3916;SDS011;1973;50.518;7.318;2023-10-09T13:44:18;15.40;;;5.77;;
3916;SDS011;1973;50.518;7.318;2023-10-09T13:46:44;13.00;;;6.00;;
3916;SDS011;1973;50.518;7.318;2023-10-09T13:49:11;7.00;;;5.27;;
3916;SDS011;1973;50.518;7.318;2023-10-09T13:51:41;9.27;;;5.63;;
3916;SDS011;1973;50.518;7.318;2023-10-09T13:54:14;10.07;;;5.40;;
3916;SDS011;1973;50.518;7.318;2023-10-09T13:56:55;13.73;;;5.47;;
3916;SDS011;1973;50.518;7.318;2023-10-09T13:59:22;8.60;;;5.77;;
3916;SDS011;1973;50.518;7.318;2023-10-09T14:01:51;8.30;;;4.80;;
3916;SDS011;1973;50.518;7.318;2023-10-09T14:04:22;9.43;;;5.10;;
3916;SDS011;1973;50.518;7.318;2023-10-09T14:06:49;8.97;;;5.70;;
3916;SDS011;1973;50.518;7.318;2023-10-09T14:09:26;9.37;;;5.47;;
3916;SDS011;1973;50.518;7.318;2023-10-09T14:11:55;9.00;;;5.40;;
3916;SDS011;1973;50.518;7.318;2023-10-09T14:14:44;14.43;;;5.63;;
3916;SDS011;1973;50.518;7.318;2023-10-09T14:19:44;7.90;;;5.23;;
3916;SDS011;1973;50.518;7.318;2023-10-09T14:22:14;11.37;;;5.30;;
3916;SDS011;1973;50.518;7.318;2023-10-09T14:24:44;9.47;;;5.33;;
3916;SDS011;1973;50.518;7.318;2023-10-09T14:27:13;7.17;;;4.40;;
3916;SDS011;1973;50.518;7.318;2023-10-09T14:29:52;8.50;;;4.80;;
3916;SDS011;1973;50.518;7.318;2023-10-09T14:32:26;7.47;;;4.97;;
3916;SDS011;1973;50.518;7.318;2023-10-09T14:35:00;11.63;;;5.10;;
3916;SDS011;1973;50.518;7.318;2023-10-09T14:37:28;7.20;;;5.47;;
3916;SDS011;1973;50.518;7.318;2023-10-09T14:39:55;9.30;;;5.07;;
3916;SDS011;1973;50.518;7.318;2023-10-09T14:42:23;7.70;;;5.80;;
3916;SDS011;1973;50.518;7.318;2023-10-09T14:44:53;5.97;;;4.53;;
3916;SDS011;1973;50.518;7.318;2023-10-09T14:47:22;8.23;;;5.17;;
3916;SDS011;1973;50.518;7.318;2023-10-09T14:49:48;7.77;;;5.70;;
3916;SDS011;1973;50.518;7.318;2023-10-09T14:52:15;8.30;;;5.20;;
3916;SDS011;1973;50.518;7.318;2023-10-09T14:54:46;7.77;;;5.50;;
3916;SDS011;1973;50.518;7.318;2023-10-09T14:57:14;11.83;;;5.00;;
3916;SDS011;1973;50.518;7.318;2023-10-09T14:59:41;9.57;;;5.10;;
3916;SDS011;1973;50.518;7.318;2023-10-09T15:02:09;7.07;;;5.30;;
3916;SDS011;1973;50.518;7.318;2023-10-09T15:04:38;10.17;;;6.20;;
3916;SDS011;1973;50.518;7.318;2023-10-09T15:07:05;11.67;;;9.87;;
3916;SDS011;1973;50.518;7.318;2023-10-09T15:09:36;8.87;;;7.60;;
3916;SDS011;1973;50.518;7.318;2023-10-09T15:12:03;10.90;;;6.20;;
3916;SDS011;1973;50.518;7.318;2023-10-09T15:14:33;8.57;;;6.67;;
3916;SDS011;1973;50.518;7.318;2023-10-09T15:17:00;15.13;;;5.27;;
3916;SDS011;1973;50.518;7.318;2023-10-09T15:19:28;6.87;;;5.17;;
3916;SDS011;1973;50.518;7.318;2023-10-09T15:21:58;6.60;;;5.33;;
3916;SDS011;1973;50.518;7.318;2023-10-09T15:24:26;6.63;;;4.90;;
3916;SDS011;1973;50.518;7.318;2023-10-09T15:26:54;7.70;;;4.73;;
3916;SDS011;1973;50.518;7.318;2023-10-09T15:29:25;9.40;;;5.23;;
3916;SDS011;1973;50.518;7.318;2023-10-09T15:31:57;9.40;;;5.60;;
3916;SDS011;1973;50.518;7.318;2023-10-09T15:34:31;9.73;;;5.73;;
3916;SDS011;1973;50.518;7.318;2023-10-09T15:37:00;8.60;;;5.37;;
3916;SDS011;1973;50.518;7.318;2023-10-09T15:39:27;7.77;;;4.77;;
3916;SDS011;1973;50.518;7.318;2023-10-09T15:41:54;7.97;;;5.10;;
3916;SDS011;1973;50.518;7.318;2023-10-09T15:44:20;6.47;;;4.73;;
3916;SDS011;1973;50.518;7.318;2023-10-09T15:46:53;8.73;;;4.70;;
3916;SDS011;1973;50.518;7.318;2023-10-09T15:49:26;8.70;;;5.50;;
3916;SDS011;1973;50.518;7.318;2023-10-09T15:51:53;7.30;;;5.40;;
3916;SDS011;1973;50.518;7.318;2023-10-09T15:54:20;8.27;;;5.60;;
3916;SDS011;1973;50.518;7.318;2023-10-09T15:56:46;8.77;;;5.10;;
3916;SDS011;1973;50.518;7.318;2023-10-09T15:59:33;8.73;;;5.70;;
3916;SDS011;1973;50.518;7.318;2023-10-09T16:02:00;7.60;;;5.00;;
3916;SDS011;1973;50.518;7.318;2023-10-09T16:04:26;9.50;;;5.43;;
3916;SDS011;1973;50.518;7.318;2023-10-09T16:06:53;7.00;;;5.70;;
3916;SDS011;1973;50.518;7.318;2023-10-09T16:09:21;7.33;;;5.50;;
3916;SDS011;1973;50.518;7.318;2023-10-09T16:11:48;10.90;;;7.20;;
3916;SDS011;1973;50.518;7.318;2023-10-09T16:14:15;7.93;;;5.90;;
3916;SDS011;1973;50.518;7.318;2023-10-09T16:16:42;9.27;;;6.00;;
3916;SDS011;1973;50.518;7.318;2023-10-09T16:19:11;9.50;;;6.30;;
3916;SDS011;1973;50.518;7.318;2023-10-09T16:21:38;9.57;;;6.60;;
3916;SDS011;1973;50.518;7.318;2023-10-09T16:24:06;8.90;;;6.33;;
3916;SDS011;1973;50.518;7.318;2023-10-09T16:26:35;9.33;;;5.43;;
3916;SDS011;1973;50.518;7.318;2023-10-09T16:29:11;10.10;;;5.10;;
3916;SDS011;1973;50.518;7.318;2023-10-09T16:31:39;7.83;;;6.17;;
3916;SDS011;1973;50.518;7.318;2023-10-09T16:34:07;9.40;;;5.80;;